sensor_id;sensor_type;location;lat;lon;timestamp;pressure;altitude;pressure_sealevel;temperature;humidity
4981;BME280;2507;50.392;7.482;2022-10-31T00:00:59;101309.41;;;13.08;90.36
4981;BME280;2507;50.392;7.482;2022-10-31T00:03:24;101327.84;;;12.83;88.34
4981;BME280;2507;50.392;7.482;2022-10-31T00:05:51;101314.72;;;12.44;90.91
4981;BME280;2507;50.392;7.482;2022-10-31T00:08:17;101315.03;;;12.26;90.32
4981;BME280;2507;50.392;7.482;2022-10-31T00:10:43;101320.00;;;12.04;91.39
4981;BME280;2507;50.392;7.482;2022-10-31T00:13:09;101320.97;;;12.03;92.45
4981;BME280;2507;50.392;7.482;2022-10-31T00:15:36;101320.38;;;12.25;91.78
4981;BME280;2507;50.392;7.482;2022-10-31T00:18:03;101316.94;;;12.37;90.81
4981;BME280;2507;50.392;7.482;2022-10-31T00:20:29;101318.31;;;12.43;90.06
4981;BME280;2507;50.392;7.482;2022-10-31T00:23:00;101316.63;;;12.29;89.81
4981;BME280;2507;50.392;7.482;2022-10-31T00:25:27;101314.63;;;12.32;90.74
4981;BME280;2507;50.392;7.482;2022-10-31T00:27:53;101328.22;;;12.39;90.04
4981;BME280;2507;50.392;7.482;2022-10-31T00:30:18;101336.19;;;12.25;90.80
4981;BME280;2507;50.392;7.482;2022-10-31T00:32:44;101337.38;;;12.07;91.67
4981;BME280;2507;50.392;7.482;2022-10-31T00:35:09;101346.41;;;12.03;92.62
4981;BME280;2507;50.392;7.482;2022-10-31T00:37:34;101347.69;;;12.10;92.30
4981;BME280;2507;50.392;7.482;2022-10-31T00:39:59;101346.34;;;12.17;92.50
4981;BME280;2507;50.392;7.482;2022-10-31T00:42:25;101349.66;;;12.33;91.90
4981;BME280;2507;50.392;7.482;2022-10-31T00:44:50;101354.25;;;12.17;90.97
4981;BME280;2507;50.392;7.482;2022-10-31T00:47:15;101345.84;;;12.24;91.30
4981;BME280;2507;50.392;7.482;2022-10-31T00:49:41;101353.38;;;12.43;90.83
4981;BME280;2507;50.392;7.482;2022-10-31T00:52:06;101352.25;;;12.47;90.01
4981;BME280;2507;50.392;7.482;2022-10-31T00:54:31;101351.56;;;12.44;89.92
4981;BME280;2507;50.392;7.482;2022-10-31T00:56:57;101357.59;;;12.46;90.00
4981;BME280;2507;50.392;7.482;2022-10-31T00:59:22;101351.81;;;12.53;89.83
4981;BME280;2507;50.392;7.482;2022-10-31T01:01:47;101351.31;;;12.73;89.57
4981;BME280;2507;50.392;7.482;2022-10-31T01:04:13;101353.03;;;12.74;89.55
4981;BME280;2507;50.392;7.482;2022-10-31T01:06:38;101340.78;;;12.73;89.65
4981;BME280;2507;50.392;7.482;2022-10-31T01:09:03;101343.31;;;12.75;89.79
4981;BME280;2507;50.392;7.482;2022-10-31T01:11:29;101345.44;;;12.82;89.44
4981;BME280;2507;50.392;7.482;2022-10-31T01:13:54;101357.75;;;12.82;89.53
4981;BME280;2507;50.392;7.482;2022-10-31T01:16:23;101352.69;;;12.79;89.81
4981;BME280;2507;50.392;7.482;2022-10-31T01:18:49;101354.28;;;12.81;89.57
4981;BME280;2507;50.392;7.482;2022-10-31T01:21:17;101349.13;;;12.80;89.83
4981;BME280;2507;50.392;7.482;2022-10-31T01:23:42;101356.06;;;12.81;89.78
4981;BME280;2507;50.392;7.482;2022-10-31T01:26:16;101350.28;;;12.76;90.18
4981;BME280;2507;50.392;7.482;2022-10-31T01:29:04;101352.47;;;12.82;89.44
4981;BME280;2507;50.392;7.482;2022-10-31T01:31:32;101349.22;;;12.78;89.73
4981;BME280;2507;50.392;7.482;2022-10-31T01:33:58;101335.34;;;12.89;89.74
4981;BME280;2507;50.392;7.482;2022-10-31T01:36:27;101335.31;;;13.01;89.32
4981;BME280;2507;50.392;7.482;2022-10-31T01:38:55;101330.50;;;13.08;89.04
4981;BME280;2507;50.392;7.482;2022-10-31T01:41:24;101331.22;;;12.97;89.34
4981;BME280;2507;50.392;7.482;2022-10-31T01:43:56;101328.69;;;12.96;89.37
4981;BME280;2507;50.392;7.482;2022-10-31T01:46:24;101318.59;;;13.02;89.23
4981;BME280;2507;50.392;7.482;2022-10-31T01:48:53;101312.06;;;13.08;89.11
4981;BME280;2507;50.392;7.482;2022-10-31T01:51:23;101319.94;;;13.20;88.58
4981;BME280;2507;50.392;7.482;2022-10-31T01:53:52;101314.78;;;13.19;88.69
4981;BME280;2507;50.392;7.482;2022-10-31T01:56:20;101317.22;;;13.09;88.66
4981;BME280;2507;50.392;7.482;2022-10-31T01:58:46;101316.69;;;13.04;88.87
4981;BME280;2507;50.392;7.482;2022-10-31T02:01:12;101319.31;;;12.92;88.95
4981;BME280;2507;50.392;7.482;2022-10-31T02:03:38;101317.31;;;12.70;89.51
4981;BME280;2507;50.392;7.482;2022-10-31T02:06:09;101313.81;;;12.57;90.79
4981;BME280;2507;50.392;7.482;2022-10-31T02:08:38;101309.41;;;12.70;90.59
4981;BME280;2507;50.392;7.482;2022-10-31T02:11:05;101308.03;;;12.65;89.28
4981;BME280;2507;50.392;7.482;2022-10-31T02:13:33;101306.66;;;12.59;89.54
4981;BME280;2507;50.392;7.482;2022-10-31T02:15:59;101309.38;;;12.45;89.33
4981;BME280;2507;50.392;7.482;2022-10-31T02:18:27;101304.94;;;12.46;89.51
4981;BME280;2507;50.392;7.482;2022-10-31T02:29:11;101317.97;;;12.34;92.41
4981;BME280;2507;50.392;7.482;2022-10-31T02:34:30;101313.78;;;12.45;92.83
4981;BME280;2507;50.392;7.482;2022-10-31T02:37:10;101320.66;;;12.60;91.68
4981;BME280;2507;50.392;7.482;2022-10-31T02:42:15;101310.13;;;12.60;90.01
4981;BME280;2507;50.392;7.482;2022-10-31T02:44:57;101316.03;;;12.51;89.31
4981;BME280;2507;50.392;7.482;2022-10-31T02:47:27;101316.44;;;12.45;89.30
4981;BME280;2507;50.392;7.482;2022-10-31T02:50:24;101314.22;;;12.51;89.54
4981;BME280;2507;50.392;7.482;2022-10-31T02:52:53;101314.53;;;12.47;89.11
4981;BME280;2507;50.392;7.482;2022-10-31T02:57:51;101316.16;;;12.22;88.62
4981;BME280;2507;50.392;7.482;2022-10-31T03:00:18;101309.75;;;12.26;89.30
4981;BME280;2507;50.392;7.482;2022-10-31T03:05:59;101307.56;;;12.46;87.79
4981;BME280;2507;50.392;7.482;2022-10-31T03:08:37;101309.03;;;12.37;87.74
4981;BME280;2507;50.392;7.482;2022-10-31T03:11:08;101305.25;;;12.41;87.18
4981;BME280;2507;50.392;7.482;2022-10-31T03:19:05;101311.94;;;12.20;88.68
4981;BME280;2507;50.392;7.482;2022-10-31T03:21:39;101313.13;;;12.28;88.28
4981;BME280;2507;50.392;7.482;2022-10-31T03:24:08;101307.75;;;12.30;87.74
4981;BME280;2507;50.392;7.482;2022-10-31T03:26:37;101310.69;;;12.25;87.75
4981;BME280;2507;50.392;7.482;2022-10-31T03:29:06;101311.63;;;12.12;87.85
4981;BME280;2507;50.392;7.482;2022-10-31T03:31:37;101312.75;;;12.08;88.59
4981;BME280;2507;50.392;7.482;2022-10-31T03:34:05;101312.75;;;12.08;88.79
4981;BME280;2507;50.392;7.482;2022-10-31T03:36:34;101323.28;;;12.08;88.53
4981;BME280;2507;50.392;7.482;2022-10-31T03:39:02;101322.00;;;12.01;89.09
4981;BME280;2507;50.392;7.482;2022-10-31T03:41:34;101324.72;;;11.99;89.14
4981;BME280;2507;50.392;7.482;2022-10-31T03:44:04;101327.97;;;11.90;89.49
4981;BME280;2507;50.392;7.482;2022-10-31T03:46:33;101314.81;;;11.90;90.15
4981;BME280;2507;50.392;7.482;2022-10-31T03:48:58;101316.84;;;11.99;89.82
4981;BME280;2507;50.392;7.482;2022-10-31T03:51:38;101312.84;;;12.06;90.07
4981;BME280;2507;50.392;7.482;2022-10-31T03:54:19;101316.13;;;12.10;89.43
4981;BME280;2507;50.392;7.482;2022-10-31T03:56:58;101314.25;;;12.12;89.50
4981;BME280;2507;50.392;7.482;2022-10-31T04:00:13;101314.03;;;12.15;89.63
4981;BME280;2507;50.392;7.482;2022-10-31T04:02:22;101317.88;;;12.23;89.04
4981;BME280;2507;50.392;7.482;2022-10-31T04:04:50;101329.97;;;12.26;89.02
4981;BME280;2507;50.392;7.482;2022-10-31T04:07:17;101314.31;;;12.37;88.54
4981;BME280;2507;50.392;7.482;2022-10-31T04:09:45;101322.41;;;12.34;88.74
4981;BME280;2507;50.392;7.482;2022-10-31T04:12:15;101315.91;;;12.40;88.65
4981;BME280;2507;50.392;7.482;2022-10-31T04:14:43;101316.84;;;12.51;87.94
4981;BME280;2507;50.392;7.482;2022-10-31T04:17:13;101318.84;;;12.60;87.83
4981;BME280;2507;50.392;7.482;2022-10-31T04:19:39;101317.81;;;12.63;87.79
4981;BME280;2507;50.392;7.482;2022-10-31T04:22:04;101317.81;;;12.63;87.50
4981;BME280;2507;50.392;7.482;2022-10-31T04:24:30;101309.81;;;12.64;88.08
4981;BME280;2507;50.392;7.482;2022-10-31T04:26:55;101308.88;;;12.65;87.79
4981;BME280;2507;50.392;7.482;2022-10-31T04:29:20;101304.66;;;12.75;88.18
4981;BME280;2507;50.392;7.482;2022-10-31T04:31:46;101298.66;;;12.86;87.90
4981;BME280;2507;50.392;7.482;2022-10-31T04:34:11;101309.00;;;13.14;87.26
4981;BME280;2507;50.392;7.482;2022-10-31T04:36:36;101305.00;;;13.08;86.34
4981;BME280;2507;50.392;7.482;2022-10-31T04:39:01;101308.25;;;13.24;86.27
4981;BME280;2507;50.392;7.482;2022-10-31T04:41:27;101292.03;;;13.18;85.77
4981;BME280;2507;50.392;7.482;2022-10-31T04:43:52;101304.75;;;13.24;86.56
4981;BME280;2507;50.392;7.482;2022-10-31T04:46:17;101309.38;;;13.33;85.98
4981;BME280;2507;50.392;7.482;2022-10-31T04:48:43;101310.56;;;13.29;86.65
4981;BME280;2507;50.392;7.482;2022-10-31T04:51:08;101305.19;;;13.30;87.74
4981;BME280;2507;50.392;7.482;2022-10-31T04:53:33;101296.94;;;13.35;87.27
4981;BME280;2507;50.392;7.482;2022-10-31T04:55:59;101296.41;;;13.30;87.15
4981;BME280;2507;50.392;7.482;2022-10-31T04:58:27;101292.75;;;13.32;87.78
4981;BME280;2507;50.392;7.482;2022-10-31T05:00:53;101297.78;;;13.36;87.91
4981;BME280;2507;50.392;7.482;2022-10-31T05:03:19;101288.97;;;13.48;87.47
4981;BME280;2507;50.392;7.482;2022-10-31T05:05:44;101293.31;;;13.49;87.34
4981;BME280;2507;50.392;7.482;2022-10-31T05:08:10;101295.03;;;13.37;87.38
4981;BME280;2507;50.392;7.482;2022-10-31T05:10:35;101285.38;;;13.25;87.82
4981;BME280;2507;50.392;7.482;2022-10-31T05:13:02;101294.97;;;13.13;88.06
4981;BME280;2507;50.392;7.482;2022-10-31T05:15:27;101294.56;;;12.94;89.57
4981;BME280;2507;50.392;7.482;2022-10-31T05:17:54;101293.28;;;13.00;89.48
4981;BME280;2507;50.392;7.482;2022-10-31T05:20:23;101286.75;;;13.05;89.30
4981;BME280;2507;50.392;7.482;2022-10-31T05:22:51;101281.91;;;13.12;88.60
4981;BME280;2507;50.392;7.482;2022-10-31T05:25:17;101281.16;;;13.10;88.63
4981;BME280;2507;50.392;7.482;2022-10-31T05:27:45;101277.91;;;13.06;88.07
4981;BME280;2507;50.392;7.482;2022-10-31T05:30:12;101267.75;;;13.00;89.02
4981;BME280;2507;50.392;7.482;2022-10-31T05:32:43;101262.31;;;13.03;88.97
4981;BME280;2507;50.392;7.482;2022-10-31T05:35:11;101268.59;;;13.01;88.39
4981;BME280;2507;50.392;7.482;2022-10-31T05:37:38;101272.94;;;12.89;89.18
4981;BME280;2507;50.392;7.482;2022-10-31T05:40:05;101274.31;;;12.82;89.23
4981;BME280;2507;50.392;7.482;2022-10-31T05:42:30;101282.22;;;12.70;89.90
4981;BME280;2507;50.392;7.482;2022-10-31T05:44:56;101276.31;;;12.66;90.89
4981;BME280;2507;50.392;7.482;2022-10-31T05:47:21;101273.28;;;12.72;91.40
4981;BME280;2507;50.392;7.482;2022-10-31T05:49:46;101269.88;;;12.83;91.08
4981;BME280;2507;50.392;7.482;2022-10-31T05:52:12;101272.94;;;12.89;91.24
4981;BME280;2507;50.392;7.482;2022-10-31T05:54:37;101260.38;;;12.93;91.14
4981;BME280;2507;50.392;7.482;2022-10-31T05:57:02;101270.22;;;12.91;91.06
4981;BME280;2507;50.392;7.482;2022-10-31T05:59:28;101264.41;;;12.86;91.70
4981;BME280;2507;50.392;7.482;2022-10-31T06:01:53;101264.84;;;12.92;90.80
4981;BME280;2507;50.392;7.482;2022-10-31T06:04:18;101261.34;;;13.04;91.18
4981;BME280;2507;50.392;7.482;2022-10-31T06:06:43;101253.16;;;13.09;90.49
4981;BME280;2507;50.392;7.482;2022-10-31T06:09:09;101268.31;;;13.05;90.52
4981;BME280;2507;50.392;7.482;2022-10-31T06:11:34;101263.25;;;13.02;91.10
4981;BME280;2507;50.392;7.482;2022-10-31T06:13:59;101264.09;;;13.03;90.92
4981;BME280;2507;50.392;7.482;2022-10-31T06:16:25;101261.47;;;13.03;91.07
4981;BME280;2507;50.392;7.482;2022-10-31T06:18:50;101264.97;;;13.03;91.18
4981;BME280;2507;50.392;7.482;2022-10-31T06:21:15;101266.94;;;13.00;91.11
4981;BME280;2507;50.392;7.482;2022-10-31T06:23:40;101267.25;;;12.83;91.39
4981;BME280;2507;50.392;7.482;2022-10-31T06:26:06;101264.41;;;12.73;92.08
4981;BME280;2507;50.392;7.482;2022-10-31T06:28:31;101264.09;;;12.90;92.46
4981;BME280;2507;50.392;7.482;2022-10-31T06:30:56;101262.59;;;12.99;91.34
4981;BME280;2507;50.392;7.482;2022-10-31T06:33:21;101265.34;;;12.97;90.82
4981;BME280;2507;50.392;7.482;2022-10-31T06:35:47;101267.38;;;12.81;91.46
4981;BME280;2507;50.392;7.482;2022-10-31T06:38:13;101278.44;;;12.74;92.46
4981;BME280;2507;50.392;7.482;2022-10-31T06:40:38;101268.72;;;12.99;92.52
4981;BME280;2507;50.392;7.482;2022-10-31T06:43:04;101273.66;;;13.16;91.29
4981;BME280;2507;50.392;7.482;2022-10-31T06:45:29;101275.59;;;13.14;90.13
4981;BME280;2507;50.392;7.482;2022-10-31T06:47:55;101275.91;;;13.10;90.52
4981;BME280;2507;50.392;7.482;2022-10-31T06:50:21;101281.66;;;13.27;90.93
4981;BME280;2507;50.392;7.482;2022-10-31T06:52:54;101275.53;;;13.40;90.00
4981;BME280;2507;50.392;7.482;2022-10-31T06:55:21;101272.34;;;13.34;90.39
4981;BME280;2507;50.392;7.482;2022-10-31T06:58:00;101282.50;;;13.28;89.69
4981;BME280;2507;50.392;7.482;2022-10-31T07:00:28;101285.06;;;13.17;90.33
4981;BME280;2507;50.392;7.482;2022-10-31T07:03:05;101285.47;;;13.11;90.94
4981;BME280;2507;50.392;7.482;2022-10-31T07:05:31;101282.75;;;13.12;90.60
4981;BME280;2507;50.392;7.482;2022-10-31T07:07:59;101282.84;;;13.11;90.71
4981;BME280;2507;50.392;7.482;2022-10-31T07:10:26;101278.75;;;13.19;90.46
4981;BME280;2507;50.392;7.482;2022-10-31T07:12:56;101289.19;;;13.08;90.57
4981;BME280;2507;50.392;7.482;2022-10-31T07:15:23;101283.03;;;13.20;91.08
4981;BME280;2507;50.392;7.482;2022-10-31T07:17:48;101290.56;;;13.14;90.25
4981;BME280;2507;50.392;7.482;2022-10-31T07:20:13;101280.94;;;13.00;90.55
4981;BME280;2507;50.392;7.482;2022-10-31T07:22:39;101289.94;;;12.85;91.22
4981;BME280;2507;50.392;7.482;2022-10-31T07:25:04;101297.50;;;12.77;92.55
4981;BME280;2507;50.392;7.482;2022-10-31T07:27:41;101294.13;;;12.88;92.44
4981;BME280;2507;50.392;7.482;2022-10-31T07:30:08;101295.06;;;13.24;92.80
4981;BME280;2507;50.392;7.482;2022-10-31T07:33:00;101290.28;;;13.66;90.87
4981;BME280;2507;50.392;7.482;2022-10-31T07:35:27;101288.00;;;13.85;88.80
4981;BME280;2507;50.392;7.482;2022-10-31T07:37:53;101295.69;;;13.88;87.42
4981;BME280;2507;50.392;7.482;2022-10-31T07:40:19;101280.72;;;13.65;87.08
4981;BME280;2507;50.392;7.482;2022-10-31T07:42:46;101281.44;;;13.67;88.28
4981;BME280;2507;50.392;7.482;2022-10-31T07:45:14;101290.03;;;14.05;86.35
4981;BME280;2507;50.392;7.482;2022-10-31T07:47:44;101286.22;;;14.20;85.76
4981;BME280;2507;50.392;7.482;2022-10-31T07:50:16;101278.50;;;14.29;84.36
4981;BME280;2507;50.392;7.482;2022-10-31T07:52:41;101282.78;;;14.54;82.87
4981;BME280;2507;50.392;7.482;2022-10-31T07:55:08;101282.16;;;14.51;82.53
4981;BME280;2507;50.392;7.482;2022-10-31T07:57:33;101282.53;;;14.57;81.73
4981;BME280;2507;50.392;7.482;2022-10-31T07:59:59;101283.38;;;14.58;80.30
4981;BME280;2507;50.392;7.482;2022-10-31T08:02:24;101283.38;;;14.58;80.78
4981;BME280;2507;50.392;7.482;2022-10-31T08:04:50;101287.19;;;14.43;81.07
4981;BME280;2507;50.392;7.482;2022-10-31T08:07:16;101295.19;;;14.30;82.61
4981;BME280;2507;50.392;7.482;2022-10-31T08:09:41;101291.50;;;14.20;83.15
4981;BME280;2507;50.392;7.482;2022-10-31T08:12:07;101288.16;;;14.18;83.89
4981;BME280;2507;50.392;7.482;2022-10-31T08:14:32;101290.31;;;14.24;84.42
4981;BME280;2507;50.392;7.482;2022-10-31T08:16:57;101303.63;;;14.46;84.29
4981;BME280;2507;50.392;7.482;2022-10-31T08:19:23;101291.66;;;14.64;83.71
4981;BME280;2507;50.392;7.482;2022-10-31T08:21:51;101290.63;;;14.78;82.73
4981;BME280;2507;50.392;7.482;2022-10-31T08:24:17;101289.06;;;14.86;81.86
4981;BME280;2507;50.392;7.482;2022-10-31T08:26:42;101285.69;;;15.06;80.46
4981;BME280;2507;50.392;7.482;2022-10-31T08:29:08;101283.91;;;15.07;78.99
4981;BME280;2507;50.392;7.482;2022-10-31T08:31:33;101279.81;;;15.25;78.58
4981;BME280;2507;50.392;7.482;2022-10-31T08:33:59;101281.47;;;15.26;78.92
4981;BME280;2507;50.392;7.482;2022-10-31T08:36:24;101278.50;;;15.08;77.99
4981;BME280;2507;50.392;7.482;2022-10-31T08:38:49;101273.69;;;15.13;78.67
4981;BME280;2507;50.392;7.482;2022-10-31T08:41:15;101277.38;;;14.67;80.80
4981;BME280;2507;50.392;7.482;2022-10-31T08:43:40;101280.34;;;14.51;81.71
4981;BME280;2507;50.392;7.482;2022-10-31T08:46:06;101280.47;;;14.50;80.23
4981;BME280;2507;50.392;7.482;2022-10-31T08:48:31;101271.81;;;14.48;81.64
4981;BME280;2507;50.392;7.482;2022-10-31T08:50:58;101272.81;;;14.23;82.04
4981;BME280;2507;50.392;7.482;2022-10-31T08:53:24;101264.78;;;14.24;84.08
4981;BME280;2507;50.392;7.482;2022-10-31T08:55:50;101268.22;;;14.49;83.06
4981;BME280;2507;50.392;7.482;2022-10-31T08:58:18;101270.59;;;14.41;82.52
4981;BME280;2507;50.392;7.482;2022-10-31T09:00:45;101255.13;;;14.36;83.58
4981;BME280;2507;50.392;7.482;2022-10-31T09:03:13;101259.44;;;14.37;83.83
4981;BME280;2507;50.392;7.482;2022-10-31T09:05:39;101251.09;;;14.65;82.91
4981;BME280;2507;50.392;7.482;2022-10-31T09:08:05;101251.56;;;14.70;82.30
4981;BME280;2507;50.392;7.482;2022-10-31T09:10:33;101248.91;;;14.59;81.58
4981;BME280;2507;50.392;7.482;2022-10-31T09:13:00;101247.47;;;14.66;83.15
4981;BME280;2507;50.392;7.482;2022-10-31T09:15:26;101245.09;;;14.85;82.74
4981;BME280;2507;50.392;7.482;2022-10-31T09:17:52;101252.78;;;15.21;81.21
4981;BME280;2507;50.392;7.482;2022-10-31T09:20:18;101250.19;;;15.64;78.21
4981;BME280;2507;50.392;7.482;2022-10-31T09:22:43;101243.19;;;15.95;75.35
4981;BME280;2507;50.392;7.482;2022-10-31T09:25:09;101252.94;;;16.05;74.82
4981;BME280;2507;50.392;7.482;2022-10-31T09:27:34;101241.81;;;16.11;74.06
4981;BME280;2507;50.392;7.482;2022-10-31T09:29:59;101235.25;;;15.95;74.16
4981;BME280;2507;50.392;7.482;2022-10-31T09:32:25;101234.66;;;15.91;74.58
4981;BME280;2507;50.392;7.482;2022-10-31T09:34:50;101234.09;;;15.88;74.53
4981;BME280;2507;50.392;7.482;2022-10-31T09:37:15;101238.72;;;15.75;76.19
4981;BME280;2507;50.392;7.482;2022-10-31T09:39:41;101228.25;;;15.73;77.26
4981;BME280;2507;50.392;7.482;2022-10-31T09:44:53;101232.09;;;15.69;76.02
4981;BME280;2507;50.392;7.482;2022-10-31T09:50:19;101232.03;;;15.60;76.41
4981;BME280;2507;50.392;7.482;2022-10-31T09:53:05;101220.34;;;15.62;77.58
4981;BME280;2507;50.392;7.482;2022-10-31T09:55:39;101229.59;;;15.99;75.85
4981;BME280;2507;50.392;7.482;2022-10-31T09:58:13;101229.25;;;15.93;76.61
4981;BME280;2507;50.392;7.482;2022-10-31T10:00:40;101216.97;;;16.23;75.30
4981;BME280;2507;50.392;7.482;2022-10-31T10:03:35;101220.81;;;16.61;72.89
4981;BME280;2507;50.392;7.482;2022-10-31T10:06:26;101217.66;;;16.67;72.84
4981;BME280;2507;50.392;7.482;2022-10-31T10:08:52;101222.88;;;16.57;72.22
4981;BME280;2507;50.392;7.482;2022-10-31T10:11:38;101214.47;;;16.11;74.64
4981;BME280;2507;50.392;7.482;2022-10-31T10:14:18;101200.56;;;15.77;76.97
4981;BME280;2507;50.392;7.482;2022-10-31T10:27:45;101190.88;;;15.67;77.99
4981;BME280;2507;50.392;7.482;2022-10-31T10:33:03;101198.06;;;15.96;77.03
4981;BME280;2507;50.392;7.482;2022-10-31T10:35:34;101196.72;;;16.02;77.69
4981;BME280;2507;50.392;7.482;2022-10-31T10:38:10;101194.56;;;16.37;74.97
4981;BME280;2507;50.392;7.482;2022-10-31T10:40:37;101182.13;;;16.49;76.11
4981;BME280;2507;50.392;7.482;2022-10-31T10:43:44;101185.34;;;16.31;74.94
4981;BME280;2507;50.392;7.482;2022-10-31T10:58:03;101168.00;;;17.27;73.64
4981;BME280;2507;50.392;7.482;2022-10-31T11:00:37;101168.84;;;17.28;72.24
4981;BME280;2507;50.392;7.482;2022-10-31T11:03:03;101157.13;;;17.30;72.09
4981;BME280;2507;50.392;7.482;2022-10-31T11:05:49;101154.91;;;17.35;71.48
4981;BME280;2507;50.392;7.482;2022-10-31T11:08:35;101145.00;;;17.57;70.58
4981;BME280;2507;50.392;7.482;2022-10-31T11:11:03;101146.22;;;17.24;72.04
4981;BME280;2507;50.392;7.482;2022-10-31T11:13:30;101148.53;;;16.98;73.17
4981;BME280;2507;50.392;7.482;2022-10-31T11:16:00;101147.47;;;16.61;74.90
4981;BME280;2507;50.392;7.482;2022-10-31T11:18:29;101132.34;;;16.52;76.18
4981;BME280;2507;50.392;7.482;2022-10-31T11:20:57;101133.41;;;16.70;75.55
4981;BME280;2507;50.392;7.482;2022-10-31T11:23:24;101139.75;;;16.98;74.79
4981;BME280;2507;50.392;7.482;2022-10-31T11:25:56;101126.91;;;16.93;74.62
4981;BME280;2507;50.392;7.482;2022-10-31T11:28:22;101137.53;;;17.03;73.97
4981;BME280;2507;50.392;7.482;2022-10-31T11:30:51;101136.44;;;17.15;73.89
4981;BME280;2507;50.392;7.482;2022-10-31T11:33:20;101127.53;;;17.64;73.00
4981;BME280;2507;50.392;7.482;2022-10-31T11:35:47;101118.91;;;17.52;71.82
4981;BME280;2507;50.392;7.482;2022-10-31T11:38:19;101099.63;;;17.50;72.10
4981;BME280;2507;50.392;7.482;2022-10-31T11:41:14;101097.06;;;17.87;70.78
4981;BME280;2507;50.392;7.482;2022-10-31T11:43:38;101099.03;;;17.85;70.61
4981;BME280;2507;50.392;7.482;2022-10-31T11:46:11;101096.25;;;17.67;71.33
4981;BME280;2507;50.392;7.482;2022-10-31T11:48:49;101102.13;;;17.71;70.90
4981;BME280;2507;50.392;7.482;2022-10-31T11:51:29;101089.63;;;18.00;70.67
4981;BME280;2507;50.392;7.482;2022-10-31T11:53:57;101083.06;;;18.31;69.33
4981;BME280;2507;50.392;7.482;2022-10-31T11:56:23;101075.03;;;18.77;67.63
4981;BME280;2507;50.392;7.482;2022-10-31T11:59:03;101062.38;;;18.89;66.57
4981;BME280;2507;50.392;7.482;2022-10-31T12:01:31;101060.56;;;18.25;69.61
4981;BME280;2507;50.392;7.482;2022-10-31T12:04:07;101063.72;;;18.02;70.55
4981;BME280;2507;50.392;7.482;2022-10-31T12:06:38;101075.38;;;18.28;69.93
4981;BME280;2507;50.392;7.482;2022-10-31T12:17:02;101051.69;;;18.71;68.13
4981;BME280;2507;50.392;7.482;2022-10-31T12:22:12;101058.41;;;18.38;68.75
4981;BME280;2507;50.392;7.482;2022-10-31T12:24:58;101049.59;;;18.48;68.24
4981;BME280;2507;50.392;7.482;2022-10-31T12:37:15;101021.25;;;18.83;68.30
4981;BME280;2507;50.392;7.482;2022-10-31T12:39:57;101022.84;;;18.94;68.32
4981;BME280;2507;50.392;7.482;2022-10-31T12:45:58;101003.97;;;19.40;66.75
4981;BME280;2507;50.392;7.482;2022-10-31T12:48:46;100973.09;;;19.81;64.40
4981;BME280;2507;50.392;7.482;2022-10-31T12:54:03;100959.78;;;19.29;66.83
4981;BME280;2507;50.392;7.482;2022-10-31T12:57:07;100964.84;;;19.33;66.75
4981;BME280;2507;50.392;7.482;2022-10-31T13:05:36;100969.91;;;19.44;65.88
4981;BME280;2507;50.392;7.482;2022-10-31T13:13:24;100950.59;;;19.42;67.08
4981;BME280;2507;50.392;7.482;2022-10-31T13:15:57;100936.50;;;19.83;65.55
4981;BME280;2507;50.392;7.482;2022-10-31T13:20:55;100917.72;;;20.34;63.21
4981;BME280;2507;50.392;7.482;2022-10-31T13:23:31;100911.06;;;20.46;62.79
4981;BME280;2507;50.392;7.482;2022-10-31T13:25:59;100902.91;;;20.56;62.27
4981;BME280;2507;50.392;7.482;2022-10-31T13:30:55;100903.38;;;20.35;62.62
4981;BME280;2507;50.392;7.482;2022-10-31T13:33:25;100913.47;;;20.15;63.36
4981;BME280;2507;50.392;7.482;2022-10-31T13:36:14;100917.28;;;20.13;63.24
4981;BME280;2507;50.392;7.482;2022-10-31T13:38:57;100924.28;;;20.14;63.94
4981;BME280;2507;50.392;7.482;2022-10-31T13:44:35;100907.06;;;20.00;63.98
4981;BME280;2507;50.392;7.482;2022-10-31T13:47:21;100901.22;;;19.89;65.02
4981;BME280;2507;50.392;7.482;2022-10-31T13:49:46;100901.78;;;19.67;66.49
4981;BME280;2507;50.392;7.482;2022-10-31T13:52:15;100891.69;;;19.45;68.05
4981;BME280;2507;50.392;7.482;2022-10-31T13:54:49;100885.56;;;19.26;68.27
4981;BME280;2507;50.392;7.482;2022-10-31T13:57:33;100895.97;;;19.38;68.68
4981;BME280;2507;50.392;7.482;2022-10-31T14:02:34;100876.00;;;19.33;68.79
4981;BME280;2507;50.392;7.482;2022-10-31T14:05:06;100869.94;;;19.23;69.57
4981;BME280;2507;50.392;7.482;2022-10-31T14:07:43;100874.28;;;18.81;70.97
4981;BME280;2507;50.392;7.482;2022-10-31T14:13:30;100840.06;;;18.86;71.67
4981;BME280;2507;50.392;7.482;2022-10-31T14:15:59;100842.78;;;18.69;73.68
4981;BME280;2507;50.392;7.482;2022-10-31T14:18:32;100837.34;;;18.53;72.43
4981;BME280;2507;50.392;7.482;2022-10-31T14:20:58;100838.66;;;18.74;72.58
4981;BME280;2507;50.392;7.482;2022-10-31T14:28:55;100833.41;;;19.67;68.68
4981;BME280;2507;50.392;7.482;2022-10-31T14:31:31;100833.44;;;19.83;68.13
4981;BME280;2507;50.392;7.482;2022-10-31T14:34:04;100831.78;;;19.98;67.35
4981;BME280;2507;50.392;7.482;2022-10-31T14:42:39;100815.53;;;18.92;70.97
4981;BME280;2507;50.392;7.482;2022-10-31T14:50:20;100821.13;;;19.41;69.76
4981;BME280;2507;50.392;7.482;2022-10-31T14:52:50;100822.19;;;19.64;68.31
4981;BME280;2507;50.392;7.482;2022-10-31T14:55:17;100819.09;;;19.34;68.97
4981;BME280;2507;50.392;7.482;2022-10-31T14:57:54;100797.59;;;18.94;70.39
4981;BME280;2507;50.392;7.482;2022-10-31T15:00:21;100785.75;;;18.63;72.33
4981;BME280;2507;50.392;7.482;2022-10-31T15:05:26;100784.47;;;18.75;71.92
4981;BME280;2507;50.392;7.482;2022-10-31T15:07:56;100784.22;;;18.86;71.78
4981;BME280;2507;50.392;7.482;2022-10-31T15:10:24;100780.94;;;18.92;70.98
4981;BME280;2507;50.392;7.482;2022-10-31T15:12:50;100765.84;;;19.01;70.83
4981;BME280;2507;50.392;7.482;2022-10-31T15:15:24;100777.75;;;19.14;69.89
4981;BME280;2507;50.392;7.482;2022-10-31T15:17:55;100762.72;;;19.05;70.30
4981;BME280;2507;50.392;7.482;2022-10-31T15:20:24;100753.25;;;18.77;71.27
4981;BME280;2507;50.392;7.482;2022-10-31T15:22:51;100771.00;;;18.69;71.57
4981;BME280;2507;50.392;7.482;2022-10-31T15:25:22;100751.53;;;18.43;72.89
4981;BME280;2507;50.392;7.482;2022-10-31T15:27:49;100748.09;;;18.15;74.44